Hartington, Nebraska
Current Conditions -  °F | °C
As of 7:15 PM on Sunday 21 Dec 2014 (Local Time) from KYKN Reporting Station
Overcast Overcast  
Wind Chill: 31°   Ceiling: 1000
Heat Index: 39°   Visibility: 9mi
Dew Point: 37°   Wind: 14mph
Humidity: 93%   Direction: 150°SSE
Pressure: 29.57"   Gusts: NA
Location:  42.62°N, 97.26°W
Report Text: KYKN 220115Z AUTO 15012KT 9SM OVC010 04/03 A2957 RMK AO1
Loading
Personal Weather Stations






























Interactive Weather Map New forecast layout! Learn more

10-Day Weather Forecast

Advertisements
Track Severe Weather on mobile